メキシコシティ の空港の天気 - METARとTAF

メキシコ・シティ国際空港 ( MMMX / MEX ) - メキシコ メキシコシティ
飛行場実況気象(Metar)
観測時間07/28 21:50 CDT (07/29 02:50 UTC)
風向・風速北 4m/s
視程10km以上
天気現象
全天の4割程度の雲 雲底高度 760m
全天の8割程度の雲 雲底高度 2440m
全天の8割程度の雲 雲底高度 6710m
気温20℃
湿度56%
気圧1009.9hPa
METARMMMX 290250Z 01008KT 10SM SCT025 BKN080 BKN220 20/11 A3032 NOSIG RMK SLP099 52014 955 8/463 HZY DSNT OCNL LTGICCG SE PRESRR
過去の天気等 Google飛行場航空写真 Wunderground天気予報

過去48時間のMETAR

飛行場予報(TAF)
発表時間: 7/28 18:22 CDT (7/28 23:22 UTC)
予報対象時間: 28日19時 CDT ~ 30日1時 CDT
風向・風速南南東 4m/s
視程10km以上
天気現象弱い雨
全天の8割程度の積乱雲 雲底高度 460m
全天を覆う雲 雲底高度 7620m
28日19時 CDT ~ 28日23時 CDT に一時的に
視程6440m
天気現象雷雨
28日23時 CDT から
風向・風速北西 3m/s
視程10km以上
全天の4割程度の雲 雲底高度 610m
全天の8割程度の雲 雲底高度 2440m
29日13時 CDT から
風向・風速北東 6m/s
視程10km以上
全天の4割程度の雲 雲底高度 610m
全天の8割程度の雲 雲底高度 2440m
全天の8割程度の雲 雲底高度 7620m
29日20時 CDT から 確率 40% で
視程8050m
天気現象弱い雨
全天の8割程度の積乱雲 雲底高度 610m
TAF MMMX 282322Z 2900/3006 16007KT 6SM -RA BKN015CB OVC250 TX25/2921Z TN14/2912Z
TEMPO 2900/2904 4SM TSRA
FM290400 32005KT P6SM SCT020 BKN080
FM291800 04012KT P6SM SCT020 BKN080 BKN250
PROB40 3001/3005 5SM -RA BKN020CB